Time;durP1;ratioP1;P1;durP2;ratioP2;P2;SDS_P1;SDS_P2;PMS_P1;PMS_P2;Temp;Humidity;BMP_temperature;BMP_pressure;BME280_temperature;BME280_humidity;BME280_pressure;Samples;Min_cycle;Max_cycle;Signal;HPM_P1;HPM_P2
2022/12/12 04:58:13;;;;;;;18.85;13.73;;;9.40;64.20;;;;;;4833404;29;20104;-73
2022/12/12 05:00:50;;;;;;;18.67;13.80;;;9.70;61.80;;;;;;4843971;29;20441;-72
2022/12/12 05:03:29;;;;;;;19.80;14.55;;;9.90;60.00;;;;;;4843811;29;20064;-70
2022/12/12 05:06:01;;;;;;;17.17;12.65;;;10.00;58.60;;;;;;4844506;29;20042;-76
2022/12/12 05:08:37;;;;;;;22.67;13.60;;;10.10;59.00;;;;;;4853926;29;20054;-76
2022/12/12 05:11:05;;;;;;;17.95;12.77;;;10.20;60.50;;;;;;4856821;29;20045;-77
2022/12/12 05:13:34;;;;;;;18.02;11.85;;;10.30;60.80;;;;;;4857634;29;20045;-76
2022/12/12 05:16:02;;;;;;;17.98;11.60;;;10.50;60.40;;;;;;4842914;29;20133;-75
2022/12/12 05:18:29;;;;;;;16.10;12.00;;;10.80;60.30;;;;;;4842745;29;20046;-73
2022/12/12 05:20:55;;;;;;;20.08;10.93;;;11.10;60.10;;;;;;4820502;29;20105;-69
2022/12/12 05:23:21;;;;;;;17.52;10.20;;;11.40;60.10;;;;;;4839563;29;20087;-69
2022/12/12 05:25:46;;;;;;;19.30;9.70;;;11.60;60.40;;;;;;4843193;29;20054;-73
2022/12/12 05:28:12;;;;;;;18.60;10.20;;;11.80;60.70;;;;;;4854437;29;20064;-73
2022/12/12 05:30:38;;;;;;;14.10;8.98;;;12.00;60.70;;;;;;4854561;29;20073;-71
2022/12/12 05:33:04;;;;;;;14.23;9.32;;;12.20;60.30;;;;;;4845054;29;20049;-74
2022/12/12 05:35:30;;;;;;;16.33;9.10;;;12.30;60.70;;;;;;4861949;29;20120;-75
2022/12/12 05:37:55;;;;;;;19.77;8.52;;;12.50;60.10;;;;;;4852552;29;20056;-72
2022/12/12 05:40:22;;;;;;;14.30;8.50;;;12.70;60.00;;;;;;4846683;29;20053;-76
2022/12/12 05:42:47;;;;;;;13.35;7.93;;;12.80;60.70;;;;;;4846508;29;20390;-78
2022/12/12 05:45:13;;;;;;;35.75;8.32;;;13.00;60.00;;;;;;4832887;29;20064;-77
2022/12/12 05:47:40;;;;;;;14.68;7.65;;;13.10;60.10;;;;;;4863724;29;20061;-73
2022/12/12 05:50:06;;;;;;;15.18;7.85;;;13.20;60.10;;;;;;4845822;29;20081;-76
2022/12/12 05:52:32;;;;;;;16.08;7.70;;;13.30;60.00;;;;;;4849000;29;20042;-75
2022/12/12 05:54:57;;;;;;;13.48;7.07;;;13.40;60.00;;;;;;4864131;29;20052;-75
2022/12/12 05:57:23;;;;;;;12.43;6.65;;;13.50;60.00;;;;;;4848451;29;20430;-75
2022/12/12 05:59:49;;;;;;;9.98;7.05;;;13.60;59.90;;;;;;4842767;29;20394;-75
2022/12/12 06:02:15;;;;;;;14.02;6.82;;;13.80;59.30;;;;;;4844199;29;20100;-73
2022/12/12 06:04:42;;;;;;;19.95;7.20;;;13.90;59.40;;;;;;4844452;29;20061;-79
2022/12/12 06:07:08;;;;;;;15.98;6.50;;;13.90;58.10;;;;;;4841195;29;20129;-76
2022/12/12 06:09:36;;;;;;;14.35;6.07;;;14.00;58.80;;;;;;4816572;29;20058;-73
2022/12/12 06:12:02;;;;;;;13.73;6.78;;;14.00;58.60;;;;;;4845685;29;20369;-78
2022/12/12 06:14:28;;;;;;;12.48;6.75;;;14.10;58.30;;;;;;4844599;29;20038;-72
2022/12/12 06:16:54;;;;;;;11.48;6.72;;;14.20;57.10;;;;;;4845491;29;20126;-77
2022/12/12 06:19:37;;;;;;;12.32;6.07;;;14.20;57.70;;;;;;4829584;29;20057;-78
2022/12/12 06:22:18;;;;;;;18.88;6.38;;;14.20;57.30;;;;;;4845015;29;20167;-78
2022/12/12 06:24:46;;;;;;;14.25;6.18;;;14.30;57.40;;;;;;4844973;29;20061;-77
2022/12/12 06:27:12;;;;;;;15.02;5.85;;;14.40;57.00;;;;;;4845275;29;20046;-77
2022/12/12 06:29:37;;;;;;;14.23;6.90;;;14.40;57.10;;;;;;4845554;29;20081;-78
2022/12/12 06:32:04;;;;;;;12.70;5.70;;;14.20;54.60;;;;;;4845108;29;20062;-78
2022/12/12 06:34:29;;;;;;;22.05;6.32;;;14.20;57.00;;;;;;4845596;29;20050;-72
2022/12/12 06:36:55;;;;;;;15.10;7.63;;;14.30;57.10;;;;;;4844928;29;20097;-76
2022/12/12 06:39:21;;;;;;;15.95;6.72;;;14.30;55.90;;;;;;4845468;29;20065;-78
2022/12/12 06:41:47;;;;;;;15.20;6.38;;;14.40;57.30;;;;;;4829024;29;20046;-79
2022/12/12 06:44:18;;;;;;;20.63;5.70;;;14.50;57.30;;;;;;4827543;29;20077;-81
2022/12/12 06:46:44;;;;;;;15.88;5.55;;;14.60;57.70;;;;;;4854897;29;20074;-79
2022/12/12 06:49:09;;;;;;;12.52;4.88;;;14.70;57.40;;;;;;4844524;29;20468;-78
2022/12/12 06:51:42;;;;;;;14.98;5.25;;;14.70;57.10;;;;;;4819913;29;20042;-78
2022/12/12 06:54:09;;;;;;;17.00;5.50;;;14.80;57.00;;;;;;4830716;29;20049;-80
2022/12/12 06:56:35;;;;;;;21.67;5.22;;;14.90;57.00;;;;;;4843848;29;20499;-77
2022/12/12 06:59:00;;;;;;;15.57;6.50;;;14.90;56.70;;;;;;4844750;29;20077;-75
2022/12/12 07:01:26;;;;;;;16.60;5.82;;;14.90;55.20;;;;;;4844931;29;20121;-76
2022/12/12 07:03:55;;;;;;;15.70;5.28;;;14.90;55.10;;;;;;4844846;29;20057;-75
2022/12/12 07:06:22;;;;;;;13.82;6.07;;;14.90;55.30;;;;;;4844924;29;20054;-75
2022/12/12 07:08:50;;;;;;;17.67;5.00;;;14.90;55.50;;;;;;4845092;29;20041;-75
2022/12/12 07:11:19;;;;;;;13.75;5.82;;;14.90;56.00;;;;;;4828419;29;20474;-75
2022/12/12 07:13:45;;;;;;;15.20;5.25;;;14.80;56.30;;;;;;4844559;29;20050;-76
2022/12/12 07:16:10;;;;;;;20.17;5.97;;;14.80;56.60;;;;;;4844139;29;20068;-74
2022/12/12 07:18:36;;;;;;;15.48;4.93;;;14.70;56.60;;;;;;4828600;29;20045;-74
2022/12/12 07:21:04;;;;;;;19.15;5.22;;;14.60;56.80;;;;;;4844882;29;20050;-75
2022/12/12 07:23:30;;;;;;;10.85;5.63;;;14.60;57.20;;;;;;4843977;29;20062;-75
2022/12/12 07:25:56;;;;;;;12.85;4.18;;;14.50;57.50;;;;;;4844439;29;20052;-75
2022/12/12 07:28:21;;;;;;;14.35;4.68;;;14.40;57.60;;;;;;4840405;29;20042;-75
2022/12/12 07:30:47;;;;;;;10.57;6.15;;;14.40;57.60;;;;;;4844553;29;20065;-75
2022/12/12 07:33:17;;;;;;;11.52;7.78;;;14.30;56.60;;;;;;4843810;29;20118;-76
2022/12/12 07:35:44;;;;;;;11.60;8.00;;;14.30;56.00;;;;;;4828244;29;20118;-78
2022/12/12 07:38:10;;;;;;;17.33;9.25;;;14.20;55.40;;;;;;4843890;29;20054;-76
2022/12/12 07:40:36;;;;;;;13.90;8.32;;;14.10;55.20;;;;;;4844236;29;20088;-77
2022/12/12 07:43:02;;;;;;;19.85;10.25;;;14.10;55.40;;;;;;4836205;29;20085;-78
2022/12/12 07:45:28;;;;;;;18.92;9.00;;;14.10;55.30;;;;;;4844054;29;20041;-78
2022/12/12 07:47:53;;;;;;;15.55;8.75;;;13.90;54.60;;;;;;4828233;29;20053;-78
2022/12/12 07:50:20;;;;;;;14.15;8.02;;;13.90;54.20;;;;;;4843581;29;20454;-75
2022/12/12 07:52:46;;;;;;;15.73;8.68;;;13.80;54.00;;;;;;4828148;29;20041;-77
2022/12/12 07:55:12;;;;;;;10.05;7.45;;;13.80;53.70;;;;;;4843546;29;20114;-78
2022/12/12 07:57:38;;;;;;;11.90;6.88;;;13.90;53.70;;;;;;4845888;29;20061;-76
2022/12/12 08:00:08;;;;;;;15.52;6.90;;;13.90;53.60;;;;;;4845933;29;20113;-76
2022/12/12 08:02:34;;;;;;;13.27;6.05;;;14.00;53.70;;;;;;4860767;29;20105;-76
2022/12/12 08:05:00;;;;;;;12.32;6.10;;;14.10;53.70;;;;;;4860297;29;20061;-75
2022/12/12 08:07:25;;;;;;;9.27;4.50;;;14.20;53.60;;;;;;4857746;29;20064;-74
2022/12/12 08:09:52;;;;;;;10.25;5.05;;;14.40;53.80;;;;;;4846771;29;20057;-76
2022/12/12 08:12:18;;;;;;;9.57;4.97;;;14.50;53.80;;;;;;4862891;29;20341;-74
2022/12/12 08:14:44;;;;;;;7.85;4.65;;;14.60;53.80;;;;;;4844119;29;20058;-76
2022/12/12 08:17:09;;;;;;;9.70;3.92;;;14.70;53.80;;;;;;4859531;29;20338;-75
2022/12/12 08:19:35;;;;;;;7.95;4.28;;;14.80;53.80;;;;;;4845792;29;20182;-77
2022/12/12 08:22:01;;;;;;;7.05;3.65;;;14.80;53.80;;;;;;4861430;29;20073;-75
2022/12/12 08:24:27;;;;;;;8.85;3.67;;;14.90;53.90;;;;;;4861438;29;20049;-74
2022/12/12 08:26:53;;;;;;;5.97;3.75;;;15.00;54.00;;;;;;4862185;29;20049;-77
2022/12/12 08:29:19;;;;;;;7.93;3.60;;;15.10;54.00;;;;;;4862028;29;20045;-75
2022/12/12 08:31:45;;;;;;;10.65;3.58;;;15.10;53.90;;;;;;4861995;29;20045;-78
2022/12/12 08:34:11;;;;;;;6.18;3.50;;;15.20;54.00;;;;;;4862052;29;20045;-77
2022/12/12 08:36:37;;;;;;;5.32;3.53;;;15.30;54.00;;;;;;4857908;29;20438;-76
2022/12/12 08:39:21;;;;;;;9.73;4.03;;;15.30;54.00;;;;;;4861821;29;20049;-78
2022/12/12 08:41:47;;;;;;;;;;;15.40;54.10;;;;;;4861373;29;20128;-77
2022/12/12 08:44:15;;;;;;;18.67;4.53;;;15.40;54.00;;;;;;4860278;29;20278;-76
2022/12/12 08:46:41;;;;;;;12.05;4.72;;;15.50;54.20;;;;;;4861436;29;20058;-76
2022/12/12 08:49:09;;;;;;;14.30;4.57;;;15.40;54.00;;;;;;4844917;29;20471;-77
2022/12/12 08:51:39;;;;;;;12.90;3.95;;;15.40;54.30;;;;;;4845858;29;20094;-77
2022/12/12 08:54:05;;;;;;;12.13;3.58;;;15.40;54.30;;;;;;4860057;29;20045;-77
2022/12/12 08:56:31;;;;;;;7.60;3.75;;;15.50;55.00;;;;;;4844966;29;20519;-77
2022/12/12 08:58:57;;;;;;;13.32;3.67;;;15.50;54.40;;;;;;4845610;29;20049;-78
2022/12/12 09:01:24;;;;;;;13.15;3.70;;;15.60;54.40;;;;;;4861573;29;20116;-78
2022/12/12 09:03:51;;;;;;;13.63;3.85;;;15.60;54.40;;;;;;4829158;29;20049;-78
2022/12/12 09:06:17;;;;;;;12.55;3.80;;;15.70;54.30;;;;;;4861278;29;20053;-79
2022/12/12 09:08:44;;;;;;;6.40;3.08;;;15.70;54.20;;;;;;4861550;29;20052;-78
2022/12/12 09:11:10;;;;;;;12.32;3.88;;;15.70;54.20;;;;;;4861616;29;20041;-75
2022/12/12 09:13:37;;;;;;;14.07;3.58;;;15.80;54.20;;;;;;4848265;29;20125;-76
2022/12/12 09:16:04;;;;;;;14.40;4.20;;;15.70;54.20;;;;;;4857695;29;20049;-75
2022/12/12 09:18:30;;;;;;;9.88;3.60;;;15.70;54.30;;;;;;4848849;29;20093;-75
2022/12/12 09:20:57;;;;;;;8.68;2.88;;;15.70;54.40;;;;;;4865072;29;20136;-76
2022/12/12 09:23:24;;;;;;;14.05;4.47;;;15.60;54.50;;;;;;4864826;29;20049;-77
2022/12/12 09:25:51;;;;;;;12.02;5.90;;;15.50;54.10;;;;;;4864983;29;20061;-77
2022/12/12 09:28:18;;;;;;;13.13;7.28;;;15.40;52.30;;;;;;4864537;29;20050;-77
2022/12/12 09:30:45;;;;;;;12.80;6.72;;;15.40;51.90;;;;;;4848385;29;20045;-75
2022/12/12 09:33:11;;;;;;;8.80;5.80;;;15.20;52.00;;;;;;4864348;29;20482;-75
2022/12/12 09:35:37;;;;;;;11.00;5.63;;;15.20;52.30;;;;;;4864666;29;20053;-77
2022/12/12 09:38:03;;;;;;;10.30;4.93;;;15.10;52.70;;;;;;4864302;29;20054;-74
2022/12/12 09:40:32;;;;;;;10.15;4.57;;;15.00;53.00;;;;;;4865013;29;20155;-76
2022/12/12 09:42:59;;;;;;;9.40;4.45;;;14.90;53.60;;;;;;4864773;29;20048;-74
2022/12/12 09:45:25;;;;;;;11.02;4.15;;;14.90;53.90;;;;;;4861440;29;20053;-75
2022/12/12 09:47:58;;;;;;;8.80;3.65;;;14.80;54.10;;;;;;4861524;29;20124;-77
2022/12/12 09:50:31;;;;;;;8.95;3.83;;;14.80;54.30;;;;;;4864465;29;20068;-77
2022/12/12 09:53:03;;;;;;;6.47;3.50;;;14.80;55.00;;;;;;4864059;29;20037;-76
2022/12/12 09:55:52;;;;;;;5.28;2.92;;;14.70;54.40;;;;;;4864367;29;20049;-75
2022/12/12 09:58:50;;;;;;;10.18;3.38;;;14.70;54.70;;;;;;4863860;29;20057;-77
2022/12/12 10:01:25;;;;;;;7.30;3.22;;;14.60;54.80;;;;;;4864120;29;20364;-77
2022/12/12 10:04:02;;;;;;;5.18;3.08;;;14.60;55.10;;;;;;4863590;29;20119;-75
2022/12/12 10:06:40;;;;;;;4.95;2.85;;;14.60;55.30;;;;;;4862980;29;20060;-76
2022/12/12 10:09:23;;;;;;;6.00;2.80;;;14.60;55.20;;;;;;4863353;29;20075;-77
2022/12/12 10:11:53;;;;;;;5.30;2.13;;;14.70;55.10;;;;;;4864157;29;20056;-77
2022/12/12 10:14:35;;;;;;;4.80;2.55;;;14.70;55.20;;;;;;4847522;29;20059;-75
2022/12/12 10:17:07;;;;;;;2.67;2.13;;;14.70;55.20;;;;;;4864305;29;20489;-77
2022/12/12 10:19:40;;;;;;;3.03;2.28;;;14.70;55.20;;;;;;4863827;29;20460;-75
2022/12/12 10:22:18;;;;;;;3.08;2.10;;;14.70;55.30;;;;;;4864079;29;20053;-74
2022/12/12 10:24:47;;;;;;;3.58;2.20;;;14.70;55.30;;;;;;4863158;29;20121;-77
2022/12/12 10:27:13;;;;;;;2.80;1.90;;;14.60;55.30;;;;;;4847651;29;20089;-77
2022/12/12 10:29:47;;;;;;;3.35;2.03;;;14.60;55.40;;;;;;4862931;29;20056;-77
2022/12/12 10:32:31;;;;;;;3.03;2.10;;;14.60;55.50;;;;;;4864075;29;20436;-77
2022/12/12 10:35:24;;;;;;;6.20;2.13;;;14.60;55.60;;;;;;4864008;29;20049;-77
2022/12/12 10:38:22;;;;;;;3.95;2.00;;;14.50;55.70;;;;;;4863362;29;20377;-74
2022/12/12 10:41:15;;;;;;;2.00;1.50;;;14.50;55.70;;;;;;4863761;29;20519;-75
2022/12/12 10:44:02;;;;;;;2.25;1.80;;;14.50;55.80;;;;;;4863400;29;20049;-76
2022/12/12 10:46:46;;;;;;;3.90;1.80;;;14.50;55.90;;;;;;4858679;29;20061;-75
2022/12/12 10:49:17;;;;;;;4.57;2.05;;;14.50;56.10;;;;;;4850773;29;20085;-76
2022/12/12 10:51:46;;;;;;;5.00;2.15;;;14.40;56.20;;;;;;4863248;29;20089;-76
2022/12/12 10:54:21;;;;;;;4.28;2.00;;;14.50;56.10;;;;;;4848636;29;20054;-75
2022/12/12 10:57:18;;;;;;;4.40;2.22;;;14.50;55.90;;;;;;4863288;29;20057;-75
2022/12/12 10:59:53;;;;;;;3.53;2.00;;;14.50;55.90;;;;;;4856409;29;20045;-74
2022/12/12 11:02:41;;;;;;;2.97;2.13;;;14.50;56.10;;;;;;4855309;29;20166;-74
2022/12/12 11:05:16;;;;;;;5.00;1.98;;;14.50;56.00;;;;;;4863203;29;20125;-74
2022/12/12 11:07:47;;;;;;;5.57;4.10;;;14.50;56.00;;;;;;4863578;29;20157;-75
2022/12/12 11:10:27;;;;;;;10.57;6.50;;;14.60;56.00;;;;;;4862227;29;20057;-73
2022/12/12 11:13:15;;;;;;;11.98;6.25;;;14.60;54.60;;;;;;4863075;29;20049;-73
2022/12/12 11:15:51;;;;;;;10.52;5.93;;;14.70;53.70;;;;;;4847176;29;20117;-77
2022/12/12 11:18:20;;;;;;;8.05;4.95;;;14.70;53.90;;;;;;4861452;29;20399;-71
2022/12/12 11:21:08;;;;;;;10.90;6.35;;;14.80;54.20;;;;;;4863166;29;20045;-70
2022/12/12 11:23:38;;;;;;;15.95;6.65;;;14.90;53.60;;;;;;4862687;29;20057;-70
2022/12/12 11:26:16;;;;;;;11.13;6.53;;;15.00;53.20;;;;;;4862077;29;20037;-70
2022/12/12 11:28:59;;;;;;;14.55;8.27;;;15.10;52.50;;;;;;4863079;29;20037;-73
2022/12/12 11:31:30;;;;;;;12.95;8.32;;;15.10;51.80;;;;;;4862063;29;20120;-72
2022/12/12 11:33:59;;;;;;;11.10;8.60;;;15.10;50.20;;;;;;4859504;29;20402;-73
2022/12/12 11:36:40;;;;;;;12.68;7.13;;;15.10;50.10;;;;;;4859407;29;20055;-74
2022/12/12 11:39:23;;;;;;;9.65;6.47;;;15.20;50.00;;;;;;4850329;29;20193;-73
2022/12/12 11:41:59;;;;;;;7.93;6.07;;;15.20;50.20;;;;;;4845109;29;20456;-72
2022/12/12 11:44:28;;;;;;;7.28;4.97;;;15.30;50.30;;;;;;4862424;29;20674;-74
2022/12/12 11:46:54;;;;;;;7.80;4.93;;;15.40;50.60;;;;;;4862423;29;20045;-74
2022/12/12 11:49:20;;;;;;;5.50;4.22;;;15.40;50.80;;;;;;4862972;29;20053;-72
2022/12/12 11:51:45;;;;;;;8.70;4.15;;;15.40;51.20;;;;;;4862515;29;20424;-71
2022/12/12 11:54:21;;;;;;;7.32;3.80;;;15.40;51.60;;;;;;4862673;29;20129;-73
2022/12/12 11:57:22;;;;;;;5.25;3.35;;;15.40;51.90;;;;;;4862214;29;20046;-74
2022/12/12 12:00:04;;;;;;;6.28;3.03;;;15.40;52.20;;;;;;4862074;29;20121;-74
2022/12/12 12:03:00;;;;;;;5.13;2.80;;;15.40;52.50;;;;;;4846419;29;20050;-73
2022/12/12 12:05:41;;;;;;;6.93;3.10;;;15.30;52.80;;;;;;4862244;29;20059;-74
2022/12/12 12:08:39;;;;;;;6.05;2.70;;;15.30;53.20;;;;;;4845967;29;20057;-75
2022/12/12 12:11:08;;;;;;;8.98;2.80;;;15.30;53.50;;;;;;4861913;29;20049;-73
2022/12/12 12:14:07;;;;;;;7.20;3.33;;;15.20;53.60;;;;;;4861433;29;20053;-72
2022/12/12 12:16:48;;;;;;;8.73;2.90;;;15.20;53.90;;;;;;4845817;29;20050;-75
2022/12/12 12:19:39;;;;;;;13.68;3.38;;;15.20;54.10;;;;;;4845730;29;20091;-73
2022/12/12 12:22:37;;;;;;;14.55;3.60;;;15.20;54.40;;;;;;4845824;29;20050;-75
2022/12/12 12:25:14;;;;;;;13.75;4.28;;;15.10;54.50;;;;;;4858136;29;20145;-75
2022/12/12 12:27:43;;;;;;;8.30;3.45;;;15.10;54.30;;;;;;4861785;29;20102;-73
2022/12/12 12:30:22;;;;;;;8.68;3.78;;;15.20;54.20;;;;;;4862134;29;20068;-73
2022/12/12 12:32:53;;;;;;;8.85;3.65;;;15.20;54.10;;;;;;4862045;29;20073;-72
2022/12/12 12:35:31;;;;;;;9.23;3.63;;;15.10;54.10;;;;;;4845967;29;20376;-74
2022/12/12 12:38:26;;;;;;;6.38;3.78;;;15.10;54.10;;;;;;4861993;29;20041;-74
2022/12/12 12:41:18;;;;;;;9.38;3.42;;;15.10;54.00;;;;;;4852961;29;20084;-74
2022/12/12 12:44:09;;;;;;;7.93;4.00;;;15.10;54.00;;;;;;4845108;29;20065;-74
2022/12/12 12:46:49;;;;;;;11.95;3.67;;;15.20;54.00;;;;;;4836518;29;20057;-74
2022/12/12 12:49:22;;;;;;;9.80;3.65;;;15.20;53.80;;;;;;4852317;29;20063;-74
2022/12/12 12:51:57;;;;;;;7.68;3.55;;;15.20;53.90;;;;;;4865541;29;20069;-74
2022/12/12 12:54:28;;;;;;;6.60;3.40;;;15.20;53.90;;;;;;4866035;29;20049;-75
2022/12/12 12:57:06;;;;;;;6.55;3.15;;;15.10;53.90;;;;;;4865201;29;20053;-73
2022/12/12 12:59:38;;;;;;;6.75;3.40;;;15.20;53.80;;;;;;4849583;29;20063;-73
2022/12/12 13:02:25;;;;;;;5.80;2.95;;;15.20;53.70;;;;;;4849102;29;20049;-74
2022/12/12 13:05:12;;;;;;;4.95;3.10;;;15.20;53.70;;;;;;4848629;29;20472;-74
2022/12/12 13:07:46;;;;;;;4.80;3.38;;;15.20;53.70;;;;;;4863466;29;20089;-75
2022/12/12 13:10:27;;;;;;;12.32;3.60;;;15.20;53.80;;;;;;4864833;29;20045;-73
2022/12/12 13:13:21;;;;;;;5.32;3.20;;;15.20;53.80;;;;;;4864736;29;20061;-73
2022/12/12 13:15:55;;;;;;;5.60;3.42;;;15.20;53.70;;;;;;4855329;29;20042;-73
2022/12/12 13:18:21;;;;;;;7.13;3.58;;;15.20;53.70;;;;;;4865077;29;20053;-75
2022/12/12 13:21:00;;;;;;;4.60;3.17;;;15.20;53.80;;;;;;4849228;29;20429;-73
2022/12/12 13:23:47;;;;;;;3.95;2.88;;;15.20;53.80;;;;;;4864882;29;20117;-74
2022/12/12 13:27:00;;;;;;;4.38;3.03;;;15.10;53.80;;;;;;4865134;29;20132;-74
2022/12/12 13:30:13;;;;;;;4.47;3.30;;;15.20;53.90;;;;;;4843900;29;20140;-72
2022/12/12 13:33:11;;;;;;;3.20;2.80;;;15.20;53.90;;;;;;4810847;29;20130;-72
2022/12/12 13:35:44;;;;;;;4.18;2.95;;;15.20;53.80;;;;;;4822111;29;20069;-72
2022/12/12 13:38:27;;;;;;;4.23;2.70;;;15.20;53.90;;;;;;4838524;29;20069;-73
2022/12/12 13:40:59;;;;;;;6.88;3.33;;;15.10;53.70;;;;;;4856901;29;20217;-73
2022/12/12 13:43:27;;;;;;;7.22;2.83;;;15.10;54.10;;;;;;4863211;29;20045;-75
2022/12/12 13:45:54;;;;;;;5.07;2.95;;;15.10;54.50;;;;;;4846734;29;20156;-73
2022/12/12 13:48:41;;;;;;;7.82;2.92;;;15.10;54.70;;;;;;4848730;29;20057;-75
2022/12/12 13:51:26;;;;;;;6.47;2.30;;;15.20;55.00;;;;;;4861549;29;20121;-75
2022/12/12 13:54:10;;;;;;;7.88;2.97;;;15.20;55.30;;;;;;4860709;29;20061;-73
2022/12/12 13:56:43;;;;;;;7.95;2.15;;;15.10;55.20;;;;;;4848476;29;20449;-72
2022/12/12 13:59:21;;;;;;;3.08;2.10;;;15.10;55.60;;;;;;4863347;29;20124;-73
2022/12/12 14:01:54;;;;;;;7.68;2.85;;;15.20;55.40;;;;;;4864526;29;20088;-75
2022/12/12 14:04:30;;;;;;;4.47;2.25;;;15.20;55.30;;;;;;4862915;29;20085;-74
2022/12/12 14:07:00;;;;;;;3.85;2.20;;;15.20;55.30;;;;;;4847102;29;20049;-74
2022/12/12 14:09:31;;;;;;;6.65;2.35;;;15.20;55.50;;;;;;4864360;29;20050;-73
2022/12/12 14:12:06;;;;;;;8.63;2.22;;;15.20;55.80;;;;;;4864173;29;20049;-73
2022/12/12 14:14:35;;;;;;;5.65;2.53;;;15.10;55.70;;;;;;4843788;29;20054;-73
2022/12/12 14:17:02;;;;;;;8.75;3.35;;;15.20;55.60;;;;;;4864444;29;20118;-75
2022/12/12 14:19:35;;;;;;;12.38;3.25;;;15.20;54.80;;;;;;4864114;29;20077;-74
2022/12/12 14:22:01;;;;;;;13.20;3.20;;;15.20;54.70;;;;;;4864515;29;20088;-72
2022/12/12 14:24:32;;;;;;;15.70;4.25;;;15.20;55.50;;;;;;4847201;29;20081;-75
2022/12/12 14:27:03;;;;;;;10.73;5.00;;;15.20;54.50;;;;;;4863994;29;20045;-74
2022/12/12 14:29:31;;;;;;;15.80;5.85;;;15.20;54.00;;;;;;4871833;29;20045;-77
2022/12/12 14:32:12;;;;;;;13.70;4.85;;;15.20;53.30;;;;;;4864722;29;20048;-73
2022/12/12 14:34:56;;;;;;;13.32;4.72;;;15.20;52.80;;;;;;4864497;29;20082;-74
2022/12/12 14:37:35;;;;;;;22.00;5.43;;;15.20;53.20;;;;;;4864614;29;20046;-75
2022/12/12 14:40:12;;;;;;;20.67;5.82;;;15.10;53.20;;;;;;4864087;29;20082;-71
2022/12/12 14:42:47;;;;;;;19.48;5.70;;;15.10;52.80;;;;;;4850387;29;20057;-74
2022/12/12 14:45:38;;;;;;;13.15;4.60;;;15.10;51.90;;;;;;4863514;29;20449;-75
2022/12/12 14:48:13;;;;;;;15.27;4.32;;;15.20;51.70;;;;;;4863160;29;20042;-73
2022/12/12 14:50:45;;;;;;;14.00;4.75;;;15.20;52.10;;;;;;4847425;29;20049;-74
2022/12/12 14:53:37;;;;;;;9.18;4.47;;;15.20;52.30;;;;;;4847149;29;20094;-75
2022/12/12 14:56:17;;;;;;;9.40;3.60;;;15.20;52.60;;;;;;4835761;29;20077;-72
2022/12/12 14:59:20;;;;;;;9.45;4.28;;;15.20;53.00;;;;;;4863052;29;20053;-73
2022/12/12 15:01:49;;;;;;;5.80;2.88;;;15.20;53.20;;;;;;4840194;29;20211;-73
2022/12/12 15:04:26;;;;;;;7.38;3.30;;;15.30;53.50;;;;;;4863358;29;20057;-74
2022/12/12 15:07:00;;;;;;;16.17;3.97;;;15.30;53.70;;;;;;4847146;29;20104;-74
2022/12/12 15:09:30;;;;;;;;;;;15.30;53.80;;;;;;4863317;29;20049;-75
2022/12/12 15:12:05;;;;;;;23.83;3.35;;;15.30;54.20;;;;;;4862975;29;20729;-76
2022/12/12 15:14:30;;;;;;;10.57;3.97;;;15.30;54.30;;;;;;4863458;29;20062;-72
2022/12/12 15:17:04;;;;;;;13.30;4.50;;;14.80;52.50;;;;;;4846703;29;20070;-74
2022/12/12 15:19:33;;;;;;;10.73;4.22;;;14.90;54.40;;;;;;4863149;29;20069;-75
2022/12/12 15:21:59;;;;;;;24.05;4.80;;;14.90;54.80;;;;;;4877418;29;20064;-74
2022/12/12 15:24:28;;;;;;;15.43;4.35;;;14.90;55.10;;;;;;4877465;29;20049;-72
2022/12/12 15:26:58;;;;;;;11.93;4.35;;;14.90;55.40;;;;;;4846644;29;20057;-72
2022/12/12 15:29:29;;;;;;;15.88;4.25;;;14.90;55.40;;;;;;4877544;29;20185;-74
2022/12/12 15:32:02;;;;;;;22.75;4.72;;;14.90;55.60;;;;;;4862108;29;20045;-74
2022/12/12 15:34:32;;;;;;;14.90;5.18;;;14.90;55.90;;;;;;4849486;29;20072;-73
2022/12/12 15:37:20;;;;;;;23.52;5.30;;;14.90;55.20;;;;;;4862761;29;20457;-72
2022/12/12 15:40:16;;;;;;;22.15;5.97;;;14.90;55.10;;;;;;4852781;29;20053;-74
2022/12/12 15:42:45;;;;;;;20.00;6.43;;;14.90;54.90;;;;;;4846823;29;20464;-72
2022/12/12 15:45:23;;;;;;;27.55;6.45;;;14.90;54.40;;;;;;4853578;29;20053;-73
2022/12/12 15:47:53;;;;;;;19.05;6.25;;;14.90;54.20;;;;;;4877466;29;20050;-73
2022/12/12 15:50:27;;;;;;;21.27;6.60;;;14.90;54.50;;;;;;4862374;29;20100;-73
2022/12/12 15:53:18;;;;;;;24.88;6.40;;;14.80;54.60;;;;;;4862381;29;20065;-72
2022/12/12 15:55:56;;;;;;;21.10;6.72;;;14.80;54.80;;;;;;4862272;29;20073;-72
2022/12/12 15:58:26;;;;;;;16.73;5.85;;;14.70;54.90;;;;;;4837975;29;20090;-75
2022/12/12 16:01:01;;;;;;;23.95;6.18;;;14.70;55.10;;;;;;4827853;29;20069;-73
2022/12/12 16:03:27;;;;;;;18.15;6.28;;;14.60;55.50;;;;;;4826616;29;20054;-74
2022/12/12 16:06:15;;;;;;;15.75;6.20;;;14.60;55.90;;;;;;4826969;29;20049;-73
2022/12/12 16:08:54;;;;;;;25.20;6.57;;;14.50;56.10;;;;;;4840397;29;20085;-72
2022/12/12 16:11:37;;;;;;;19.60;5.40;;;14.50;56.10;;;;;;4839121;29;20087;-72
2022/12/12 16:14:04;;;;;;;18.40;5.30;;;14.50;56.30;;;;;;4840439;29;20081;-74
2022/12/12 16:16:38;;;;;;;17.05;5.13;;;14.50;56.40;;;;;;4840646;29;20376;-74
2022/12/12 16:19:21;;;;;;;20.63;5.70;;;14.40;56.50;;;;;;4842547;29;20050;-74
2022/12/12 16:21:47;;;;;;;21.13;5.70;;;14.40;56.70;;;;;;4827191;29;20126;-76
2022/12/12 16:24:21;;;;;;;22.63;6.45;;;14.40;56.70;;;;;;4827526;29;20441;-74
2022/12/12 16:26:47;;;;;;;27.05;6.43;;;14.50;56.50;;;;;;4843429;29;20353;-71
2022/12/12 16:29:13;;;;;;;26.92;7.68;;;14.50;56.60;;;;;;4843567;29;20053;-74
2022/12/12 16:31:39;;;;;;;24.45;8.55;;;14.50;56.10;;;;;;4843768;29;20122;-75
2022/12/12 16:34:05;;;;;;;26.70;8.65;;;14.60;54.30;;;;;;4843224;29;20046;-73
2022/12/12 16:36:31;;;;;;;21.95;7.50;;;14.80;53.90;;;;;;4843644;29;20054;-73
2022/12/12 16:38:56;;;;;;;21.30;7.00;;;14.90;54.00;;;;;;4843795;29;20046;-74
2022/12/12 16:41:22;;;;;;;20.80;6.97;;;15.00;54.30;;;;;;4831638;29;20065;-77
2022/12/12 16:43:48;;;;;;;20.15;6.63;;;15.10;54.60;;;;;;4819959;29;20102;-74
2022/12/12 16:46:20;;;;;;;17.67;6.53;;;15.10;54.90;;;;;;4825900;29;20441;-73
2022/12/12 16:48:45;;;;;;;21.33;6.25;;;15.20;55.30;;;;;;4841908;29;20062;-73
2022/12/12 16:51:16;;;;;;;22.77;6.82;;;15.30;55.40;;;;;;4856107;29;20203;-71
2022/12/12 16:53:42;;;;;;;18.90;6.72;;;15.30;55.60;;;;;;4840505;29;20425;-72
2022/12/12 16:56:10;;;;;;;27.45;7.25;;;15.30;55.70;;;;;;4828154;29;20104;-73
2022/12/12 16:58:36;;;;;;;23.98;8.18;;;15.30;56.80;;;;;;4861381;29;20585;-72
2022/12/12 17:01:03;;;;;;;18.23;7.22;;;15.40;57.00;;;;;;4853743;29;20060;-73
2022/12/12 17:03:31;;;;;;;23.85;7.18;;;15.50;57.30;;;;;;4859748;29;20068;-72
2022/12/12 17:05:57;;;;;;;22.40;6.97;;;15.60;57.90;;;;;;4861449;29;20049;-72
2022/12/12 17:08:23;;;;;;;25.00;6.82;;;15.70;58.50;;;;;;4861117;29;20053;-73
2022/12/12 17:10:52;;;;;;;17.90;5.93;;;15.80;59.10;;;;;;4861824;29;20041;-72
2022/12/12 17:13:23;;;;;;;23.42;7.13;;;15.80;59.40;;;;;;4861820;29;20041;-72
2022/12/12 17:15:50;;;;;;;25.95;6.28;;;15.90;59.80;;;;;;4860549;29;20109;-72
2022/12/12 17:18:17;;;;;;;19.40;6.38;;;15.90;60.00;;;;;;4861357;29;20418;-74
2022/12/12 17:20:44;;;;;;;16.13;6.57;;;15.90;59.90;;;;;;4853711;29;20049;-71
2022/12/12 17:23:18;;;;;;;14.43;5.57;;;15.80;60.10;;;;;;4838860;29;20477;-73
2022/12/12 17:25:44;;;;;;;17.08;6.25;;;15.90;60.20;;;;;;4860805;29;20049;-72
2022/12/12 17:28:15;;;;;;;21.90;7.20;;;15.80;60.10;;;;;;4855283;29;20041;-72
2022/12/12 17:30:41;;;;;;;21.52;6.90;;;15.80;60.70;;;;;;4861359;29;20464;-72
2022/12/12 17:33:07;;;;;;;20.33;7.00;;;15.80;60.50;;;;;;4862011;29;20061;-73
2022/12/12 17:35:33;;;;;;;19.52;5.72;;;15.70;60.50;;;;;;4864985;29;20068;-72
2022/12/12 17:37:59;;;;;;;25.45;6.55;;;15.70;60.40;;;;;;4864115;29;20081;-74
2022/12/12 17:40:25;;;;;;;22.05;6.18;;;15.70;60.50;;;;;;4864578;29;20388;-72
2022/12/12 17:42:50;;;;;;;27.00;7.68;;;15.70;60.60;;;;;;4864807;29;20460;-72
2022/12/12 17:45:16;;;;;;;23.85;7.53;;;15.70;60.80;;;;;;4863432;29;20056;-74
2022/12/12 17:47:42;;;;;;;26.80;7.80;;;15.70;60.50;;;;;;4864329;29;20449;-76
2022/12/12 17:50:08;;;;;;;22.88;7.85;;;15.60;60.00;;;;;;4864047;29;20049;-74
2022/12/12 17:52:34;;;;;;;23.73;7.38;;;15.60;59.90;;;;;;4864619;29;20045;-77
2022/12/12 17:55:00;;;;;;;23.73;7.47;;;15.60;59.70;;;;;;4864171;29;20057;-77
2022/12/12 17:57:27;;;;;;;24.00;7.80;;;15.50;59.50;;;;;;4864028;29;20102;-78
2022/12/12 17:59:54;;;;;;;25.50;6.40;;;15.40;59.30;;;;;;4864257;29;20088;-78
2022/12/12 18:02:19;;;;;;;17.95;6.70;;;15.40;59.50;;;;;;4863657;29;20046;-77
2022/12/12 18:04:45;;;;;;;15.43;6.68;;;15.30;59.30;;;;;;4864341;29;20185;-77